createdAt,value
2023-06-18T00:01:16.311Z,15.81
2023-06-18T00:04:00.885Z,15.82
2023-06-18T00:06:30.322Z,15.82
2023-06-18T00:09:00.791Z,15.76
2023-06-18T00:11:30.285Z,15.77
2023-06-18T00:13:59.452Z,15.78
2023-06-18T00:16:28.921Z,15.76
2023-06-18T00:18:57.847Z,15.75
2023-06-18T00:21:27.519Z,15.75
2023-06-18T00:23:56.905Z,15.74
2023-06-18T00:26:27.738Z,15.72
2023-06-18T00:28:57.000Z,15.68
2023-06-18T00:31:27.151Z,15.67
2023-06-18T00:33:57.862Z,15.63
2023-06-18T00:36:27.513Z,15.63
2023-06-18T00:38:57.568Z,15.57
2023-06-18T00:41:29.933Z,15.53
2023-06-18T00:44:00.500Z,15.51
2023-06-18T00:46:31.681Z,15.47
2023-06-18T00:49:02.286Z,15.44
2023-06-18T00:51:32.340Z,15.41
2023-06-18T00:54:01.685Z,15.40
2023-06-18T00:56:33.781Z,15.38
2023-06-18T00:59:02.872Z,15.33
2023-06-18T01:01:34.182Z,15.30
2023-06-18T01:04:06.300Z,15.31
2023-06-18T01:06:38.144Z,15.31
2023-06-18T01:09:09.178Z,15.27
2023-06-18T01:11:41.855Z,15.24
2023-06-18T01:14:11.448Z,15.24
2023-06-18T01:16:47.399Z,15.21
2023-06-18T01:19:39.456Z,15.18
2023-06-18T01:22:18.805Z,15.14
2023-06-18T01:24:52.903Z,15.09
2023-06-18T01:27:25.346Z,15.07
2023-06-18T01:29:55.981Z,15.04
2023-06-18T01:32:25.967Z,15.03
2023-06-18T01:34:55.898Z,14.99
2023-06-18T01:37:36.691Z,14.99
2023-06-18T01:40:19.218Z,14.96
2023-06-18T01:42:57.951Z,14.93
2023-06-18T01:45:32.304Z,14.91
2023-06-18T01:48:06.020Z,14.90
2023-06-18T01:50:37.716Z,14.87
2023-06-18T01:53:09.009Z,14.87
2023-06-18T01:55:40.024Z,14.86
2023-06-18T01:58:11.877Z,14.85
2023-06-18T02:00:41.398Z,14.84
2023-06-18T02:03:10.922Z,14.83
2023-06-18T02:05:40.145Z,14.81
2023-06-18T02:08:09.598Z,14.81
2023-06-18T02:10:38.698Z,14.80
2023-06-18T02:13:11.555Z,14.78
2023-06-18T02:15:42.955Z,14.79
2023-06-18T02:18:13.420Z,14.77
2023-06-18T02:20:42.907Z,14.76
2023-06-18T02:23:14.384Z,14.74
2023-06-18T02:25:45.733Z,14.73
2023-06-18T02:28:16.812Z,14.70
2023-06-18T02:31:23.132Z,14.67
2023-06-18T02:33:52.592Z,14.64
2023-06-18T02:36:21.696Z,14.60
2023-06-18T02:38:53.248Z,14.59
2023-06-18T02:41:23.125Z,14.57
2023-06-18T02:43:54.243Z,14.54
2023-06-18T02:46:23.492Z,14.52
2023-06-18T02:48:52.857Z,14.50
2023-06-18T02:51:22.249Z,14.49
2023-06-18T02:53:51.640Z,14.47
2023-06-18T02:56:20.775Z,14.46
2023-06-18T02:58:52.389Z,14.43
2023-06-18T03:01:24.671Z,14.42
2023-06-18T03:03:54.948Z,14.42
2023-06-18T03:06:28.547Z,14.41
2023-06-18T03:08:58.518Z,14.41
2023-06-18T03:11:28.972Z,14.41
2023-06-18T03:13:58.969Z,14.41
2023-06-18T03:16:29.768Z,14.41
2023-06-18T03:19:00.024Z,14.40
2023-06-18T03:21:32.117Z,14.42
2023-06-18T03:24:03.886Z,14.45
2023-06-18T03:26:33.089Z,14.44
2023-06-18T03:29:03.490Z,14.52
2023-06-18T03:31:34.774Z,14.64
2023-06-18T03:34:04.800Z,14.74
2023-06-18T03:36:40.395Z,14.88
2023-06-18T03:39:11.543Z,15.06
2023-06-18T03:41:41.800Z,15.20
2023-06-18T03:44:11.326Z,15.33
2023-06-18T03:46:41.999Z,15.45
2023-06-18T03:49:11.495Z,15.54
2023-06-18T03:51:40.665Z,15.67
2023-06-18T03:54:11.044Z,15.78
2023-06-18T03:56:40.231Z,15.92
2023-06-18T03:59:11.189Z,16.05
2023-06-18T04:01:41.515Z,16.15
2023-06-18T04:04:11.059Z,16.25
2023-06-18T04:06:40.429Z,16.31
2023-06-18T04:09:10.016Z,16.42
2023-06-18T04:11:41.688Z,16.49
2023-06-18T04:14:11.249Z,16.54
2023-06-18T04:16:43.118Z,16.61
2023-06-18T04:19:13.171Z,16.64
2023-06-18T04:21:42.506Z,16.68
2023-06-18T04:24:11.888Z,16.72
2023-06-18T04:26:41.028Z,16.73
2023-06-18T04:29:10.593Z,16.82
2023-06-18T04:31:40.234Z,16.80
2023-06-18T04:34:12.557Z,16.83
2023-06-18T04:36:42.162Z,16.88
2023-06-18T04:39:11.795Z,16.93
2023-06-18T04:41:40.834Z,16.98
2023-06-18T04:44:14.030Z,17.04
2023-06-18T04:46:44.824Z,17.05
2023-06-18T04:49:17.098Z,17.09
2023-06-18T04:51:47.311Z,17.14
2023-06-18T04:54:19.552Z,17.20
2023-06-18T04:56:49.388Z,17.26
2023-06-18T04:59:18.748Z,17.31
2023-06-18T05:01:47.799Z,17.37
2023-06-18T05:04:19.838Z,17.39
2023-06-18T05:06:49.110Z,17.51
2023-06-18T05:09:19.683Z,17.60
2023-06-18T05:11:49.432Z,17.63
2023-06-18T05:14:19.344Z,17.69
2023-06-18T05:16:48.554Z,17.73
2023-06-18T05:19:19.331Z,17.77
2023-06-18T05:21:48.493Z,17.83
2023-06-18T05:24:18.785Z,17.88
2023-06-18T05:26:48.261Z,17.89
2023-06-18T05:29:19.333Z,17.91
2023-06-18T05:31:51.000Z,17.96
2023-06-18T05:34:30.324Z,18.03
2023-06-18T05:36:59.806Z,18.10
2023-06-18T05:39:30.089Z,18.11
2023-06-18T05:41:59.226Z,18.13
2023-06-18T05:44:29.390Z,18.14
2023-06-18T05:46:58.304Z,18.19
2023-06-18T05:49:30.279Z,18.22
2023-06-18T05:52:02.017Z,18.34
2023-06-18T05:54:31.909Z,18.37
2023-06-18T05:57:01.321Z,18.40
2023-06-18T05:59:30.997Z,18.38
2023-06-18T06:02:08.410Z,18.47
2023-06-18T06:04:39.335Z,18.53
2023-06-18T06:07:08.615Z,18.56
2023-06-18T06:09:38.054Z,18.66
2023-06-18T06:12:09.369Z,18.74
2023-06-18T06:14:38.921Z,18.77
2023-06-18T06:17:07.963Z,18.81
2023-06-18T06:19:38.685Z,18.89
2023-06-18T06:22:08.886Z,18.94
2023-06-18T06:24:38.404Z,18.98
2023-06-18T06:27:08.338Z,19.03
2023-06-18T06:29:38.028Z,19.11
2023-06-18T06:32:07.727Z,19.17
2023-06-18T06:34:38.553Z,19.29
2023-06-18T06:37:07.903Z,19.43
2023-06-18T06:39:37.944Z,19.35
2023-06-18T06:42:07.258Z,19.39
2023-06-18T06:44:36.678Z,19.50
2023-06-18T06:47:32.140Z,19.65
2023-06-18T06:50:18.882Z,19.68
2023-06-18T06:53:02.189Z,19.66
2023-06-18T06:55:31.738Z,19.71
2023-06-18T06:58:01.017Z,19.82
2023-06-18T07:00:30.737Z,19.93
2023-06-18T07:03:00.140Z,20.00
2023-06-18T07:05:31.933Z,20.08
2023-06-18T07:08:01.492Z,20.12
2023-06-18T07:10:30.930Z,20.13
2023-06-18T07:13:00.194Z,20.14
2023-06-18T07:15:29.478Z,20.11
2023-06-18T07:17:58.680Z,20.27
2023-06-18T07:20:28.094Z,20.40
2023-06-18T07:22:58.643Z,20.40
2023-06-18T07:25:27.980Z,20.45
2023-06-18T07:27:56.750Z,20.52
2023-06-18T07:30:26.181Z,20.60
2023-06-18T07:32:55.228Z,20.66
2023-06-18T07:35:24.665Z,20.66
2023-06-18T07:37:54.081Z,20.69
2023-06-18T07:40:26.966Z,20.76
2023-06-18T07:42:56.422Z,20.76
2023-06-18T07:45:25.709Z,20.76
2023-06-18T07:47:54.878Z,20.81
2023-06-18T07:50:24.592Z,20.87
2023-06-18T07:52:53.960Z,20.95
2023-06-18T07:55:25.010Z,21.07
2023-06-18T07:57:54.370Z,21.18
2023-06-18T08:00:24.092Z,21.14
2023-06-18T08:02:54.011Z,21.16
2023-06-18T08:05:23.542Z,21.21
2023-06-18T08:07:52.649Z,21.33
2023-06-18T08:10:23.610Z,21.41
2023-06-18T08:12:53.011Z,21.50
2023-06-18T08:15:22.414Z,21.52
2023-06-18T08:17:51.737Z,21.58
2023-06-18T08:20:21.671Z,21.61
2023-06-18T08:22:51.144Z,21.68
2023-06-18T08:25:20.557Z,21.82
2023-06-18T08:27:51.119Z,21.91
2023-06-18T08:30:20.637Z,22.04
2023-06-18T08:32:51.773Z,22.18
2023-06-18T08:35:21.712Z,22.11
2023-06-18T08:37:50.982Z,22.15
2023-06-18T08:40:26.224Z,22.25
2023-06-18T08:43:06.557Z,22.36
2023-06-18T08:45:37.317Z,22.27
2023-06-18T08:48:19.975Z,22.37
2023-06-18T08:51:05.017Z,22.52
2023-06-18T08:53:42.535Z,22.62
2023-06-18T08:56:12.812Z,22.68
2023-06-18T08:58:51.014Z,22.80
2023-06-18T09:01:20.914Z,22.83
2023-06-18T09:03:52.737Z,22.79
2023-06-18T09:06:22.258Z,22.89
2023-06-18T09:08:51.425Z,22.98
2023-06-18T09:11:21.964Z,23.04
2023-06-18T09:13:56.292Z,23.08
2023-06-18T09:16:27.720Z,23.11
2023-06-18T09:18:57.871Z,23.15
2023-06-18T09:21:39.977Z,23.11
2023-06-18T09:24:10.540Z,23.19
2023-06-18T09:26:40.090Z,23.29
2023-06-18T09:29:12.903Z,23.39
2023-06-18T09:31:46.152Z,23.45
2023-06-18T09:34:17.246Z,23.43
2023-06-18T09:36:49.388Z,23.44
2023-06-18T09:39:20.440Z,23.53
2023-06-18T09:41:51.044Z,23.52
2023-06-18T09:44:24.261Z,23.63
2023-06-18T09:46:57.550Z,23.56
2023-06-18T09:49:30.677Z,23.58
2023-06-18T09:52:00.544Z,23.68
2023-06-18T09:54:41.251Z,23.68
2023-06-18T09:57:12.757Z,23.77
2023-06-18T09:59:43.372Z,23.81
2023-06-18T10:02:15.154Z,23.85
2023-06-18T10:04:44.686Z,23.81
2023-06-18T10:07:18.002Z,23.75
2023-06-18T10:09:49.073Z,23.81
2023-06-18T10:12:19.783Z,23.85
2023-06-18T10:14:54.543Z,23.97
2023-06-18T10:17:28.225Z,23.95
2023-06-18T10:20:03.207Z,24.03
2023-06-18T10:22:37.510Z,24.06
2023-06-18T10:25:08.324Z,23.97
2023-06-18T10:27:38.609Z,23.98
2023-06-18T10:30:10.622Z,24.00
2023-06-18T10:32:41.902Z,24.12
2023-06-18T10:35:13.984Z,24.13
2023-06-18T10:37:45.302Z,24.17
2023-06-18T10:40:15.027Z,24.18
2023-06-18T10:42:49.294Z,24.27
2023-06-18T10:45:20.598Z,24.36
2023-06-18T10:47:50.349Z,24.37
2023-06-18T10:50:22.969Z,24.40
2023-06-18T10:52:54.418Z,24.51
2023-06-18T10:55:33.006Z,24.55
2023-06-18T10:58:04.639Z,24.59
2023-06-18T11:00:41.396Z,24.62
2023-06-18T11:03:16.596Z,24.70
2023-06-18T11:05:52.508Z,24.71
2023-06-18T11:08:28.706Z,24.75
2023-06-18T11:11:06.178Z,24.82
2023-06-18T11:13:39.186Z,24.83
2023-06-18T11:16:18.077Z,24.70
2023-06-18T11:18:47.801Z,24.66
2023-06-18T11:21:18.915Z,24.71
2023-06-18T11:23:49.548Z,24.78
2023-06-18T11:26:19.672Z,24.85
2023-06-18T11:28:49.698Z,24.94
2023-06-18T11:31:20.185Z,25.03
2023-06-18T11:33:50.764Z,25.13
2023-06-18T11:36:21.390Z,25.20
2023-06-18T11:38:58.817Z,25.11
2023-06-18T11:41:28.001Z,25.19
2023-06-18T11:43:58.526Z,25.19
2023-06-18T11:46:31.386Z,25.19
2023-06-18T11:49:01.960Z,25.26
2023-06-18T11:51:35.300Z,25.30
2023-06-18T11:54:06.085Z,25.35
2023-06-18T11:56:35.924Z,25.44
2023-06-18T11:59:05.515Z,25.49
2023-06-18T12:01:36.433Z,25.55
2023-06-18T12:04:07.404Z,25.57
2023-06-18T12:06:37.737Z,25.64
2023-06-18T12:09:22.637Z,25.69
2023-06-18T12:12:03.206Z,25.78
2023-06-18T12:14:38.911Z,25.88
2023-06-18T12:17:17.839Z,25.99
2023-06-18T12:19:54.281Z,26.07
2023-06-18T12:22:23.888Z,26.17
2023-06-18T12:24:53.643Z,26.33
2023-06-18T12:27:26.229Z,26.47
2023-06-18T12:29:59.701Z,26.61
2023-06-18T12:32:30.321Z,26.72
2023-06-18T12:34:59.793Z,26.85
2023-06-18T12:37:35.356Z,26.92
2023-06-18T12:40:15.525Z,26.95
2023-06-18T12:42:44.972Z,26.99
2023-06-18T12:45:14.468Z,27.00
2023-06-18T12:47:47.286Z,26.96
2023-06-18T12:50:23.216Z,26.95
2023-06-18T12:52:53.209Z,26.91
2023-06-18T12:55:23.704Z,26.72
2023-06-18T12:57:53.144Z,26.69
2023-06-18T13:00:24.343Z,26.71
2023-06-18T13:02:55.149Z,26.76
2023-06-18T13:05:24.961Z,26.80
2023-06-18T13:07:55.223Z,26.85
2023-06-18T13:10:25.980Z,26.87
2023-06-18T13:12:55.836Z,26.88
2023-06-18T13:15:25.478Z,26.92
2023-06-18T13:17:57.911Z,26.91
2023-06-18T13:20:27.285Z,26.93
2023-06-18T13:22:57.194Z,26.93
2023-06-18T13:25:26.985Z,26.98
2023-06-18T13:27:56.656Z,26.98
2023-06-18T13:30:26.055Z,27.02
2023-06-18T13:32:58.228Z,27.13
2023-06-18T13:35:28.237Z,27.21
2023-06-18T13:37:58.224Z,27.31
2023-06-18T13:40:28.877Z,27.38
2023-06-18T13:42:59.553Z,27.51
2023-06-18T13:45:29.746Z,27.52
2023-06-18T13:48:00.428Z,27.58
2023-06-18T13:50:29.955Z,27.57
2023-06-18T13:52:59.028Z,27.52
2023-06-18T13:55:29.263Z,27.56
2023-06-18T13:57:59.050Z,27.48
2023-06-18T14:00:28.465Z,27.47
2023-06-18T14:02:59.362Z,27.39
2023-06-18T14:05:29.431Z,27.40
2023-06-18T14:07:59.304Z,27.41
2023-06-18T14:10:28.730Z,27.43
2023-06-18T14:12:57.765Z,27.45
2023-06-18T14:15:27.485Z,27.50
2023-06-18T14:17:56.790Z,27.53
2023-06-18T14:20:27.523Z,27.53
2023-06-18T14:22:56.954Z,27.58
2023-06-18T14:25:26.519Z,27.53
2023-06-18T14:27:56.417Z,27.41
2023-06-18T14:30:26.427Z,27.35
2023-06-18T14:32:55.677Z,27.34
2023-06-18T14:35:26.644Z,27.35
2023-06-18T14:37:55.760Z,27.33
2023-06-18T14:40:25.129Z,27.21
2023-06-18T14:42:56.120Z,26.98
2023-06-18T14:45:26.099Z,26.92
2023-06-18T14:47:55.316Z,26.97
2023-06-18T14:50:26.221Z,26.87
2023-06-18T14:52:55.518Z,26.69
2023-06-18T14:55:25.093Z,26.67
2023-06-18T14:57:54.448Z,26.59
2023-06-18T15:00:23.875Z,26.60
2023-06-18T15:02:52.982Z,26.61
2023-06-18T15:05:23.928Z,26.62
2023-06-18T15:07:54.602Z,26.62
2023-06-18T15:10:24.070Z,26.68
2023-06-18T15:12:53.257Z,26.71
2023-06-18T15:15:22.894Z,26.82
2023-06-18T15:17:52.213Z,26.68
2023-06-18T15:20:24.328Z,26.82
2023-06-18T15:22:55.352Z,27.02
2023-06-18T15:25:25.504Z,27.24
2023-06-18T15:27:56.371Z,27.43
2023-06-18T15:30:25.697Z,27.60
2023-06-18T15:32:54.727Z,27.76
2023-06-18T15:35:24.395Z,27.92
2023-06-18T15:37:55.654Z,28.03
2023-06-18T15:40:25.193Z,28.03
2023-06-18T15:42:54.209Z,28.05
2023-06-18T15:45:23.948Z,28.10
2023-06-18T15:47:53.466Z,28.20
2023-06-18T15:50:23.207Z,28.36
2023-06-18T15:52:54.985Z,28.73
2023-06-18T15:55:26.050Z,29.09
2023-06-18T15:57:55.207Z,29.59
2023-06-18T16:00:24.546Z,29.88
2023-06-18T16:02:53.802Z,30.41
2023-06-18T16:05:24.237Z,30.47
2023-06-18T16:07:53.667Z,30.67
2023-06-18T16:10:23.058Z,30.80
2023-06-18T16:12:53.624Z,31.19
2023-06-18T16:15:23.806Z,31.42
2023-06-18T16:17:53.287Z,31.52
2023-06-18T16:20:22.904Z,31.69
2023-06-18T16:22:51.941Z,32.12
2023-06-18T16:25:21.479Z,32.26
2023-06-18T16:27:52.255Z,32.34
2023-06-18T16:30:21.739Z,32.36
2023-06-18T16:32:50.791Z,32.24
2023-06-18T16:35:20.451Z,32.07
2023-06-18T16:37:49.614Z,32.24
2023-06-18T16:40:18.947Z,32.30
2023-06-18T16:42:48.210Z,32.34
2023-06-18T16:45:19.058Z,32.42
2023-06-18T16:47:48.606Z,32.39
2023-06-18T16:50:18.236Z,32.44
2023-06-18T16:52:47.353Z,32.22
2023-06-18T16:55:16.750Z,32.01
2023-06-18T16:57:45.887Z,31.44
2023-06-18T17:00:16.286Z,31.22
2023-06-18T17:02:46.911Z,31.27
2023-06-18T17:05:16.881Z,31.05
2023-06-18T17:07:46.014Z,30.88
2023-06-18T17:10:15.353Z,30.72
2023-06-18T17:12:44.359Z,30.38
2023-06-18T17:15:13.787Z,30.16
2023-06-18T17:17:42.955Z,29.96
2023-06-18T17:20:14.182Z,29.89
2023-06-18T17:22:43.611Z,29.60
2023-06-18T17:25:12.934Z,29.38
2023-06-18T17:27:42.085Z,29.05
2023-06-18T17:30:12.082Z,28.99
2023-06-18T17:32:41.542Z,28.87
2023-06-18T17:35:12.459Z,28.39
2023-06-18T17:37:41.783Z,28.41
2023-06-18T17:40:12.031Z,28.23
2023-06-18T17:42:41.240Z,27.96
2023-06-18T17:45:11.246Z,27.73
2023-06-18T17:47:40.484Z,27.44
2023-06-18T17:50:10.472Z,27.20
2023-06-18T17:52:42.216Z,26.99
2023-06-18T17:55:13.153Z,26.80
2023-06-18T17:57:43.069Z,26.54
2023-06-18T18:00:12.894Z,26.24
2023-06-18T18:02:42.155Z,26.09
2023-06-18T18:05:12.234Z,25.98
2023-06-18T18:07:42.874Z,25.79
2023-06-18T18:10:12.692Z,25.63
2023-06-18T18:12:41.814Z,25.37
2023-06-18T18:15:11.952Z,25.31
2023-06-18T18:17:41.104Z,25.15
2023-06-18T18:20:12.757Z,24.96
2023-06-18T18:22:44.331Z,24.83
2023-06-18T18:25:14.698Z,24.70
2023-06-18T18:27:45.402Z,24.54
2023-06-18T18:30:18.108Z,24.46
2023-06-18T18:32:48.310Z,24.36
2023-06-18T18:35:17.891Z,24.21
2023-06-18T18:37:50.401Z,24.07
2023-06-18T18:40:19.855Z,23.74
2023-06-18T18:42:56.474Z,23.70
2023-06-18T18:45:26.859Z,23.64
2023-06-18T18:47:56.023Z,23.55
2023-06-18T18:50:25.957Z,23.45
2023-06-18T18:52:56.676Z,23.37
2023-06-18T18:55:27.586Z,23.29
2023-06-18T18:57:56.638Z,23.28
2023-06-18T19:00:26.199Z,23.25
2023-06-18T19:02:55.534Z,23.17
2023-06-18T19:05:25.125Z,23.05
2023-06-18T19:07:55.735Z,22.96
2023-06-18T19:10:26.414Z,22.89
2023-06-18T19:12:58.157Z,22.81
2023-06-18T19:15:27.591Z,22.76
2023-06-18T19:17:56.782Z,22.71
2023-06-18T19:20:26.658Z,22.67
2023-06-18T19:23:00.430Z,22.63
2023-06-18T19:25:30.613Z,22.61
2023-06-18T19:28:01.560Z,22.56
2023-06-18T19:30:33.435Z,22.49
2023-06-18T19:33:04.587Z,22.46
2023-06-18T19:35:34.271Z,22.43
2023-06-18T19:38:08.332Z,22.34
2023-06-18T19:40:39.730Z,22.26
2023-06-18T19:43:13.032Z,22.18
2023-06-18T19:45:43.865Z,22.14
2023-06-18T19:48:14.493Z,22.08
2023-06-18T19:50:44.673Z,22.05
2023-06-18T19:53:15.561Z,21.97
2023-06-18T19:55:46.322Z,21.91
2023-06-18T19:58:16.305Z,21.86
2023-06-18T20:00:48.508Z,21.79
2023-06-18T20:03:19.161Z,21.73
2023-06-18T20:05:49.868Z,21.65
2023-06-18T20:08:22.465Z,21.56
2023-06-18T20:10:51.963Z,21.50
2023-06-18T20:13:22.125Z,21.42
2023-06-18T20:15:53.880Z,21.37
2023-06-18T20:18:23.473Z,21.30
2023-06-18T20:20:55.579Z,21.25
2023-06-18T20:23:29.102Z,21.13
2023-06-18T20:26:00.180Z,21.07
2023-06-18T20:28:30.122Z,20.99
2023-06-18T20:31:01.337Z,20.95
2023-06-18T20:33:31.196Z,20.91
2023-06-18T20:36:02.427Z,20.80
2023-06-18T20:38:33.671Z,20.70
2023-06-18T20:41:03.461Z,20.58
2023-06-18T20:43:33.144Z,20.47
2023-06-18T20:46:03.603Z,20.37
2023-06-18T20:48:33.589Z,20.29
2023-06-18T20:51:05.726Z,20.20
2023-06-18T20:53:37.808Z,20.14
2023-06-18T20:56:09.768Z,20.07
2023-06-18T20:58:40.620Z,19.99
2023-06-18T21:01:10.268Z,19.90
2023-06-18T21:03:42.894Z,19.85
2023-06-18T21:06:14.301Z,19.76
2023-06-18T21:08:46.436Z,19.69
2023-06-18T21:11:16.250Z,19.65
2023-06-18T21:13:47.161Z,19.60
2023-06-18T21:16:17.242Z,19.54
2023-06-18T21:18:46.391Z,19.47
2023-06-18T21:21:15.767Z,19.39
2023-06-18T21:23:46.468Z,19.32
2023-06-18T21:26:16.122Z,19.27
2023-06-18T21:28:45.305Z,19.21
2023-06-18T21:31:14.740Z,19.14
2023-06-18T21:33:44.452Z,19.14
2023-06-18T21:36:15.613Z,19.06
2023-06-18T21:38:46.207Z,18.99
2023-06-18T21:41:15.686Z,18.97
2023-06-18T21:43:44.487Z,18.91
2023-06-18T21:46:14.966Z,18.90
2023-06-18T21:48:44.160Z,18.80
2023-06-18T21:51:13.621Z,18.74
2023-06-18T21:53:42.444Z,18.67
2023-06-18T21:56:13.372Z,18.65
2023-06-18T21:58:42.469Z,18.59
2023-06-18T22:01:11.796Z,18.57
2023-06-18T22:03:40.753Z,18.52
2023-06-18T22:06:10.193Z,18.50
2023-06-18T22:08:42.798Z,18.41
2023-06-18T22:11:13.857Z,18.34
2023-06-18T22:13:43.191Z,18.31
2023-06-18T22:16:12.560Z,18.28
2023-06-18T22:18:41.804Z,18.22
2023-06-18T22:21:12.087Z,18.21
2023-06-18T22:23:41.580Z,18.19
2023-06-18T22:26:12.536Z,18.15
2023-06-18T22:28:41.770Z,18.11
2023-06-18T22:31:11.075Z,18.10
2023-06-18T22:33:40.259Z,18.07
2023-06-18T22:36:09.720Z,18.04
2023-06-18T22:38:38.868Z,18.00
2023-06-18T22:41:08.724Z,17.96
2023-06-18T22:43:38.967Z,17.90
2023-06-18T22:46:08.465Z,17.86
2023-06-18T22:48:37.636Z,17.79
2023-06-18T22:51:07.060Z,17.75
2023-06-18T22:53:35.912Z,17.68
2023-06-18T22:56:05.310Z,17.66
2023-06-18T22:58:34.253Z,17.60
2023-06-18T23:01:08.561Z,17.54
2023-06-18T23:03:38.190Z,17.45
2023-06-18T23:06:07.792Z,17.40
2023-06-18T23:08:36.651Z,17.35
2023-06-18T23:11:05.789Z,17.29
2023-06-18T23:13:34.892Z,17.24
2023-06-18T23:16:05.997Z,17.14
2023-06-18T23:18:35.132Z,17.11
2023-06-18T23:21:05.351Z,17.02
2023-06-18T23:23:34.542Z,16.99
2023-06-18T23:26:04.117Z,16.91
2023-06-18T23:28:33.321Z,16.83
2023-06-18T23:31:04.692Z,16.81
2023-06-18T23:33:35.844Z,16.77
2023-06-18T23:36:05.113Z,16.74
2023-06-18T23:38:35.511Z,16.69
2023-06-18T23:41:04.588Z,16.64
2023-06-18T23:43:33.938Z,16.61
2023-06-18T23:46:03.047Z,16.55
2023-06-18T23:48:32.394Z,16.53
2023-06-18T23:51:03.033Z,16.50
2023-06-18T23:53:32.433Z,16.49
2023-06-18T23:56:01.476Z,16.43
2023-06-18T23:58:31.229Z,16.39
